Time;durP1;ratioP1;P1;durP2;ratioP2;P2;SDS_P1;SDS_P2;PMS_P1;PMS_P2;Temp;Humidity;BMP_temperature;BMP_pressure;BME280_temperature;BME280_humidity;BME280_pressure;Samples;Min_cycle;Max_cycle;Signal;HPM_P1;HPM_P2
2022/10/20 00:01:06;;;;;;;10.23;5.93;;;9.70;99.90;;;;;;4977320;28;20491;-80
2022/10/20 00:03:33;;;;;;;11.90;6.38;;;9.60;99.90;;;;;;4979888;28;20022;-80
2022/10/20 00:06:21;;;;;;;11.55;7.10;;;9.60;99.90;;;;;;4976983;28;20099;-83
2022/10/20 00:08:47;;;;;;;9.18;5.50;;;9.60;99.90;;;;;;4978063;28;20162;-83
2022/10/20 00:11:15;;;;;;;9.00;5.72;;;9.50;99.90;;;;;;4979400;28;20034;-83
2022/10/20 00:13:42;;;;;;;13.93;6.10;;;9.50;99.90;;;;;;4978185;28;20384;-82
2022/10/20 00:16:08;;;;;;;10.20;6.38;;;9.50;99.90;;;;;;4977545;28;20049;-83
2022/10/20 00:18:35;;;;;;;11.77;5.90;;;9.40;99.90;;;;;;4978889;28;20054;-82
2022/10/20 00:21:08;;;;;;;13.35;6.10;;;9.30;99.90;;;;;;4975367;28;20022;-83
2022/10/20 00:23:34;;;;;;;9.82;5.75;;;9.30;99.90;;;;;;4975549;28;20018;-83
2022/10/20 00:26:20;;;;;;;13.32;6.70;;;9.40;99.90;;;;;;4979219;28;20479;-81
2022/10/20 00:28:47;;;;;;;16.85;7.15;;;9.50;99.90;;;;;;4976088;28;20039;-82
2022/10/20 00:31:17;;;;;;;15.05;7.70;;;9.50;99.90;;;;;;4974299;28;20077;-82
2022/10/20 00:33:43;;;;;;;12.05;7.32;;;9.50;99.90;;;;;;4975515;28;20027;-82
2022/10/20 00:36:13;;;;;;;11.10;7.80;;;9.50;99.90;;;;;;4983631;28;20039;-83
2022/10/20 00:38:39;;;;;;;15.73;6.93;;;9.40;99.90;;;;;;4981525;28;20050;-83
2022/10/20 00:41:06;;;;;;;15.15;7.43;;;9.50;99.90;;;;;;4980651;28;20049;-82
2022/10/20 00:43:43;;;;;;;12.48;6.95;;;9.40;99.90;;;;;;4979506;28;20109;-84
2022/10/20 00:46:13;;;;;;;11.30;7.07;;;9.40;99.90;;;;;;4975961;28;20035;-84
2022/10/20 00:48:41;;;;;;;16.98;8.25;;;9.40;99.90;;;;;;4977711;28;20509;-83
2022/10/20 00:51:07;;;;;;;14.45;7.13;;;9.50;99.90;;;;;;4975797;28;20531;-82
2022/10/20 00:53:34;;;;;;;12.68;6.72;;;9.50;99.90;;;;;;4978412;28;20039;-82
2022/10/20 00:56:00;;;;;;;12.10;7.40;;;9.50;99.90;;;;;;4976365;28;20043;-82
2022/10/20 00:58:27;;;;;;;14.90;7.35;;;9.50;99.90;;;;;;4978768;28;20065;-83
2022/10/20 01:00:56;;;;;;;13.73;7.57;;;9.60;99.90;;;;;;4975979;28;20047;-84
2022/10/20 01:03:45;;;;;;;;;;;;;;;;;;;;;
2022/10/20 01:06:16;;;;;;;14.93;7.50;;;9.70;99.90;;;;;;4970498;23;20083;-32
2022/10/20 01:08:42;;;;;;;15.07;8.00;;;9.80;99.90;;;;;;4923324;29;20023;-30
2022/10/20 01:11:21;;;;;;;12.63;7.47;;;9.80;99.90;;;;;;4925185;29;20499;-33
2022/10/20 01:13:52;;;;;;;11.38;7.03;;;9.90;99.90;;;;;;4924997;29;20110;-31
2022/10/20 01:16:25;;;;;;;15.82;8.35;;;10.00;99.90;;;;;;4926068;29;20032;-31
2022/10/20 01:19:23;;;;;;;14.75;7.15;;;10.10;99.90;;;;;;4923674;29;20031;-32
2022/10/20 01:21:57;;;;;;;11.57;6.93;;;10.10;99.90;;;;;;4924969;29;20082;-33
2022/10/20 01:24:42;;;;;;;15.73;7.50;;;10.20;99.90;;;;;;4925604;29;20055;-31
2022/10/20 01:27:19;;;;;;;13.20;7.95;;;10.20;99.90;;;;;;4927008;29;20053;-31
2022/10/20 01:30:13;;;;;;;13.98;7.65;;;10.20;99.90;;;;;;4925777;29;20024;-30
2022/10/20 01:33:03;;;;;;;16.52;8.65;;;10.30;99.90;;;;;;4924427;28;20516;-31
2022/10/20 01:35:40;;;;;;;15.35;9.00;;;10.30;99.90;;;;;;4925736;29;20122;-31
2022/10/20 01:38:09;;;;;;;15.68;8.43;;;10.30;99.90;;;;;;4926821;29;20095;-31
2022/10/20 01:40:48;;;;;;;21.30;10.73;;;10.40;99.90;;;;;;4925854;29;20040;-31
2022/10/20 01:43:19;;;;;;;23.45;12.27;;;10.40;99.90;;;;;;4927031;29;20028;-30
2022/10/20 01:45:47;;;;;;;24.20;11.98;;;10.50;99.90;;;;;;4925385;29;20027;-30
2022/10/20 01:48:17;;;;;;;24.08;11.70;;;10.50;99.90;;;;;;4922626;29;20527;-33
2022/10/20 01:50:46;;;;;;;25.92;11.52;;;10.50;99.90;;;;;;4926933;29;20423;-31
2022/10/20 01:53:12;;;;;;;27.63;11.93;;;10.50;99.90;;;;;;4928490;29;20889;-35
2022/10/20 01:55:40;;;;;;;28.35;12.77;;;10.50;99.90;;;;;;4928981;29;20079;-31
2022/10/20 01:58:21;;;;;;;25.30;11.98;;;10.50;99.90;;;;;;4926510;29;20581;-37
2022/10/20 02:00:50;;;;;;;29.42;14.05;;;10.60;99.90;;;;;;4928320;28;20067;-35
2022/10/20 02:03:31;;;;;;;28.75;13.63;;;10.60;99.90;;;;;;4927937;29;20381;-31
2022/10/20 02:06:35;;;;;;;30.65;13.77;;;10.60;99.90;;;;;;4942987;28;20065;-31
2022/10/20 02:09:05;;;;;;;27.98;12.98;;;10.60;99.90;;;;;;4924927;29;20031;-33
2022/10/20 02:11:41;;;;;;;31.08;13.18;;;10.60;99.90;;;;;;4926926;29;20119;-31
2022/10/20 02:14:13;;;;;;;25.80;12.52;;;10.70;99.90;;;;;;4927275;29;20430;-34
2022/10/20 02:16:44;;;;;;;26.92;13.88;;;10.70;99.90;;;;;;4940691;28;20035;-31
2022/10/20 02:19:13;;;;;;;28.20;12.75;;;10.70;99.90;;;;;;4941374;28;20027;-34
2022/10/20 02:21:38;;;;;;;26.33;13.63;;;10.70;99.90;;;;;;4941866;28;20040;-30
2022/10/20 02:24:13;;;;;;;46.95;14.00;;;10.70;99.90;;;;;;4929743;29;20032;-32
2022/10/20 02:26:40;;;;;;;30.65;14.43;;;10.70;99.90;;;;;;4940916;28;20382;-31
2022/10/20 02:29:15;;;;;;;27.25;12.82;;;10.70;99.90;;;;;;4932799;29;20118;-30
2022/10/20 02:31:44;;;;;;;30.88;13.77;;;10.80;99.90;;;;;;4941847;28;20040;-32
2022/10/20 02:34:11;;;;;;;26.30;13.48;;;10.80;99.90;;;;;;4942985;28;20027;-33
2022/10/20 02:36:44;;;;;;;27.42;13.68;;;10.80;99.90;;;;;;4945869;28;20032;-32
2022/10/20 02:39:10;;;;;;;32.85;14.27;;;10.80;99.90;;;;;;4925523;29;20074;-31
2022/10/20 02:41:36;;;;;;;30.50;14.25;;;10.80;99.90;;;;;;4945029;28;20118;-32
2022/10/20 02:44:02;;;;;;;32.38;13.70;;;10.90;99.90;;;;;;4925415;29;20077;-31
2022/10/20 02:46:28;;;;;;;34.72;14.60;;;10.80;99.90;;;;;;4928016;29;20401;-32
2022/10/20 02:48:54;;;;;;;34.10;14.90;;;10.90;99.90;;;;;;4930746;29;20035;-32
2022/10/20 02:51:20;;;;;;;29.30;13.93;;;11.00;99.90;;;;;;4928650;28;20035;-32
2022/10/20 02:53:46;;;;;;;37.80;15.30;;;11.00;99.90;;;;;;4929133;28;20532;-33
2022/10/20 02:56:12;;;;;;;31.73;13.88;;;11.00;99.90;;;;;;4932893;29;20220;-34
2022/10/20 02:58:37;;;;;;;32.72;14.45;;;11.00;99.90;;;;;;4929577;29;20036;-31
2022/10/20 03:01:03;;;;;;;30.77;14.45;;;11.00;99.90;;;;;;4929666;28;20036;-33
2022/10/20 03:03:29;;;;;;;29.85;15.23;;;11.10;99.90;;;;;;4929533;29;20062;-32
2022/10/20 03:05:55;;;;;;;30.90;14.38;;;11.10;99.90;;;;;;4943755;28;20048;-32
2022/10/20 03:08:21;;;;;;;33.15;14.60;;;11.10;99.90;;;;;;4931879;29;20027;-32
2022/10/20 03:10:47;;;;;;;33.53;14.90;;;11.10;99.90;;;;;;4929971;29;20027;-29
2022/10/20 03:13:14;;;;;;;31.10;15.10;;;11.10;99.90;;;;;;4930887;29;20032;-33
2022/10/20 03:15:41;;;;;;;32.65;14.50;;;11.10;99.90;;;;;;4928544;29;20035;-31
2022/10/20 03:18:07;;;;;;;33.83;16.15;;;11.20;99.90;;;;;;4909803;29;20132;-31
2022/10/20 03:20:33;;;;;;;32.90;15.00;;;11.10;99.90;;;;;;4927365;29;20123;-31
2022/10/20 03:22:58;;;;;;;30.20;15.25;;;11.10;99.90;;;;;;4925303;29;20467;-34
2022/10/20 03:25:24;;;;;;;34.00;15.73;;;11.10;99.90;;;;;;4929294;29;20032;-33
2022/10/20 03:27:51;;;;;;;30.48;15.05;;;11.10;99.90;;;;;;4943793;28;20043;-29
2022/10/20 03:30:17;;;;;;;32.45;14.98;;;11.10;99.90;;;;;;4927585;29;20158;-34
2022/10/20 03:32:43;;;;;;;33.13;14.90;;;11.10;99.90;;;;;;4930628;28;20028;-33
2022/10/20 03:35:09;;;;;;;32.45;15.73;;;11.10;99.90;;;;;;4931440;29;20123;-31
2022/10/20 03:37:35;;;;;;;31.08;14.68;;;11.10;99.90;;;;;;4929861;29;20042;-32
2022/10/20 03:40:01;;;;;;;29.98;15.23;;;11.10;99.90;;;;;;4923600;29;20031;-32
2022/10/20 03:42:27;;;;;;;30.20;15.52;;;11.10;99.90;;;;;;4940916;28;20039;-33
2022/10/20 03:44:52;;;;;;;34.72;15.23;;;11.10;99.90;;;;;;4930316;29;20060;-32
2022/10/20 03:47:18;;;;;;;31.75;14.60;;;11.10;99.90;;;;;;4927378;29;20028;-31
2022/10/20 03:49:45;;;;;;;32.00;15.25;;;11.10;99.90;;;;;;4940847;28;20023;-33
2022/10/20 03:52:10;;;;;;;31.48;15.05;;;11.10;99.90;;;;;;4929088;29;20505;-31
2022/10/20 03:54:36;;;;;;;33.25;15.48;;;11.10;99.90;;;;;;4925341;29;20064;-31
2022/10/20 03:57:01;;;;;;;29.60;13.63;;;11.20;99.90;;;;;;4930766;29;20386;-31
2022/10/20 03:59:27;;;;;;;33.40;15.38;;;11.20;99.90;;;;;;4927245;29;20049;-31
2022/10/20 04:01:53;;;;;;;28.60;15.30;;;11.20;99.90;;;;;;4930549;28;20032;-31
2022/10/20 04:04:19;;;;;;;33.33;15.38;;;11.20;99.90;;;;;;4927590;29;20130;-31
2022/10/20 04:06:44;;;;;;;30.40;15.18;;;11.10;99.90;;;;;;4927899;29;20051;-32
2022/10/20 04:09:10;;;;;;;40.13;17.20;;;11.10;99.90;;;;;;4926965;29;20134;-31
2022/10/20 04:11:35;;;;;;;33.53;15.25;;;11.10;99.90;;;;;;4928237;28;20024;-30
2022/10/20 04:14:01;;;;;;;31.90;15.45;;;11.10;99.90;;;;;;4928715;29;20110;-31
2022/10/20 04:16:26;;;;;;;34.25;16.65;;;11.10;99.90;;;;;;4930398;29;21878;-31
2022/10/20 04:18:52;;;;;;;33.88;15.48;;;11.10;99.90;;;;;;4927063;29;20027;-33
2022/10/20 04:21:18;;;;;;;35.20;15.93;;;11.00;99.90;;;;;;4926602;29;20078;-31
2022/10/20 04:23:43;;;;;;;35.83;16.52;;;11.00;99.90;;;;;;4932549;29;20043;-32
2022/10/20 04:26:11;;;;;;;33.50;16.40;;;11.00;99.90;;;;;;4929324;29;20504;-30
2022/10/20 04:28:37;;;;;;;37.03;17.17;;;11.00;99.90;;;;;;4926914;29;20051;-32
2022/10/20 04:31:03;;;;;;;41.45;17.58;;;11.00;99.90;;;;;;4927650;28;20043;-31
2022/10/20 04:33:28;;;;;;;37.67;18.13;;;11.00;99.90;;;;;;4928434;29;20803;-31
2022/10/20 04:35:59;;;;;;;35.20;16.48;;;11.00;99.90;;;;;;4929672;29;20046;-31
2022/10/20 04:38:25;;;;;;;36.28;16.05;;;11.00;99.90;;;;;;4927994;29;20043;-32
2022/10/20 04:40:58;;;;;;;39.53;17.05;;;11.00;99.90;;;;;;4925645;29;20035;-31
2022/10/20 04:43:23;;;;;;;36.42;16.02;;;11.00;99.90;;;;;;4929521;29;20027;-31
2022/10/20 04:45:50;;;;;;;35.45;16.50;;;11.00;99.90;;;;;;4926406;29;20554;-31
2022/10/20 04:48:16;;;;;;;33.03;15.98;;;11.00;99.90;;;;;;4927743;29;20036;-33
2022/10/20 04:50:41;;;;;;;33.80;15.98;;;11.00;99.90;;;;;;4927149;29;20376;-34
2022/10/20 04:53:08;;;;;;;35.90;15.60;;;11.00;99.90;;;;;;4929720;29;20023;-30
2022/10/20 04:55:33;;;;;;;34.90;16.13;;;11.00;99.90;;;;;;4929416;28;21696;-32
2022/10/20 04:57:59;;;;;;;34.25;15.80;;;11.00;99.90;;;;;;4928185;29;20114;-31
2022/10/20 05:00:25;;;;;;;33.10;16.80;;;10.90;99.90;;;;;;4926820;29;20065;-31
2022/10/20 05:02:50;;;;;;;35.60;16.40;;;11.00;99.90;;;;;;4944352;28;20506;-34
2022/10/20 05:05:16;;;;;;;33.42;16.13;;;10.90;99.90;;;;;;4943348;28;20754;-31
2022/10/20 05:07:42;;;;;;;30.10;15.65;;;10.90;99.90;;;;;;4947068;28;20066;-33
2022/10/20 05:10:08;;;;;;;31.85;15.70;;;10.90;99.90;;;;;;4946042;28;20027;-31
2022/10/20 05:12:33;;;;;;;32.60;15.40;;;10.90;99.90;;;;;;4946342;28;20497;-31
2022/10/20 05:14:59;;;;;;;32.83;16.23;;;10.90;99.90;;;;;;4947554;28;20034;-31
2022/10/20 05:17:28;;;;;;;33.00;15.15;;;10.90;99.90;;;;;;4947568;28;20023;-31
2022/10/20 05:19:54;;;;;;;30.05;14.75;;;10.90;99.90;;;;;;4944949;28;20034;-31
2022/10/20 05:22:20;;;;;;;27.75;14.10;;;10.80;99.90;;;;;;4945539;28;20038;-32
2022/10/20 05:24:45;;;;;;;29.98;15.00;;;10.80;99.90;;;;;;4948818;28;20043;-31
2022/10/20 05:27:11;;;;;;;27.38;13.45;;;10.80;99.90;;;;;;4955142;28;20042;-30
2022/10/20 05:29:36;;;;;;;32.50;15.18;;;10.80;99.90;;;;;;4949694;28;20562;-31
2022/10/20 05:32:02;;;;;;;29.70;14.93;;;10.80;99.90;;;;;;4938069;28;20028;-33
2022/10/20 05:34:28;;;;;;;31.15;15.18;;;10.80;99.90;;;;;;4928751;29;20054;-31
2022/10/20 05:36:53;;;;;;;27.45;14.10;;;10.80;99.90;;;;;;4933200;29;20028;-33
2022/10/20 05:39:19;;;;;;;38.63;15.75;;;10.80;99.90;;;;;;4930070;29;20028;-31
2022/10/20 05:41:44;;;;;;;28.65;15.90;;;10.70;99.90;;;;;;4931547;29;20619;-31
2022/10/20 05:44:11;;;;;;;31.50;14.00;;;10.70;99.90;;;;;;4927263;29;20039;-32
2022/10/20 05:46:39;;;;;;;32.80;14.98;;;10.70;99.90;;;;;;4930825;29;20070;-31
2022/10/20 05:49:05;;;;;;;;;;;10.60;99.90;;;;;;4929616;29;20036;-30
2022/10/20 05:51:34;;;;;;;31.23;14.57;;;10.50;99.90;;;;;;4931113;29;19966;-31
2022/10/20 05:54:00;;;;;;;34.15;15.43;;;10.50;99.90;;;;;;4930643;29;20024;-34
2022/10/20 05:56:27;;;;;;;30.70;14.25;;;10.50;99.90;;;;;;4931915;29;20019;-31
2022/10/20 05:58:53;;;;;;;32.13;14.48;;;10.50;99.90;;;;;;4934013;29;20027;-33
2022/10/20 06:01:22;;;;;;;31.83;15.13;;;10.50;99.90;;;;;;4929190;28;20263;-32
2022/10/20 06:03:56;;;;;;;29.17;14.90;;;10.50;99.90;;;;;;4928608;29;20123;-34
2022/10/20 06:06:24;;;;;;;27.38;15.13;;;10.50;99.90;;;;;;4927118;29;20051;-31
2022/10/20 06:08:50;;;;;;;;;;;10.50;99.90;;;;;;4930271;29;20039;-31
2022/10/20 06:11:17;;;;;;;30.52;14.20;;;10.50;99.90;;;;;;4927535;29;20433;-33
2022/10/20 06:13:43;;;;;;;28.02;14.30;;;10.50;99.90;;;;;;4932718;29;20035;-33
2022/10/20 06:16:31;;;;;;;29.38;14.55;;;10.40;99.90;;;;;;4933044;29;20488;-31
2022/10/20 06:18:57;;;;;;;29.73;14.05;;;10.40;99.90;;;;;;4932975;29;20046;-31
2022/10/20 06:21:30;;;;;;;31.83;14.10;;;10.40;99.90;;;;;;4929053;29;20035;-33
2022/10/20 06:23:58;;;;;;;33.22;14.75;;;10.40;99.90;;;;;;4933910;29;20381;-32
2022/10/20 06:26:28;;;;;;;34.97;15.63;;;10.40;99.90;;;;;;4933263;29;20028;-32
2022/10/20 06:28:55;;;;;;;28.00;14.18;;;10.30;99.90;;;;;;4931831;29;20120;-31
2022/10/20 06:31:27;;;;;;;29.95;14.35;;;10.30;99.90;;;;;;4931514;29;20039;-31
2022/10/20 06:33:53;;;;;;;29.48;14.05;;;10.30;99.90;;;;;;4931158;29;20028;-31
2022/10/20 06:36:19;;;;;;;30.33;14.68;;;10.30;99.90;;;;;;4931583;29;20114;-34
2022/10/20 06:38:46;;;;;;;30.38;14.65;;;10.30;99.90;;;;;;4930741;29;20031;-31
2022/10/20 06:41:15;;;;;;;36.95;14.15;;;10.30;99.90;;;;;;4931305;29;20039;-37
2022/10/20 06:43:41;;;;;;;26.08;14.07;;;10.30;99.90;;;;;;4930104;29;20055;-30
2022/10/20 06:46:10;;;;;;;33.13;15.38;;;10.30;99.90;;;;;;4930706;29;20608;-35
2022/10/20 06:48:36;;;;;;;27.27;13.63;;;10.30;99.90;;;;;;4928522;29;20114;-33
2022/10/20 06:51:08;;;;;;;31.02;14.35;;;10.30;99.90;;;;;;4930852;29;20099;-30
2022/10/20 06:53:35;;;;;;;30.75;14.20;;;10.40;99.90;;;;;;4930377;29;20588;-31
2022/10/20 06:56:02;;;;;;;25.98;13.10;;;10.30;99.90;;;;;;4931089;29;20032;-33
2022/10/20 06:58:28;;;;;;;30.60;14.30;;;10.40;99.90;;;;;;4929837;29;20032;-33
2022/10/20 07:01:06;;;;;;;29.77;14.68;;;10.40;99.90;;;;;;4928408;29;20040;-36
2022/10/20 07:03:33;;;;;;;31.63;14.13;;;10.40;99.90;;;;;;4929866;29;20091;-31
2022/10/20 07:05:58;;;;;;;37.08;15.48;;;10.30;99.90;;;;;;4929947;29;20059;-31
2022/10/20 07:08:27;;;;;;;26.60;14.23;;;10.30;99.90;;;;;;4933406;29;20468;-32
2022/10/20 07:11:07;;;;;;;31.63;14.73;;;10.20;99.90;;;;;;4931785;29;20062;-31
2022/10/20 07:13:34;;;;;;;30.58;13.77;;;10.20;99.90;;;;;;4948356;28;20542;-30
2022/10/20 07:16:01;;;;;;;31.70;14.23;;;10.20;99.90;;;;;;4928424;29;20586;-33
2022/10/20 07:18:28;;;;;;;26.38;13.43;;;10.20;99.90;;;;;;4927504;29;20126;-30
2022/10/20 07:20:59;;;;;;;29.02;13.32;;;10.20;99.90;;;;;;4931824;29;20027;-31
2022/10/20 07:23:26;;;;;;;29.27;13.18;;;10.20;99.90;;;;;;4928610;29;20019;-32
2022/10/20 07:25:58;;;;;;;29.40;13.73;;;10.20;99.90;;;;;;4931305;29;20042;-31
2022/10/20 07:28:24;;;;;;;36.20;14.25;;;10.20;99.90;;;;;;4934177;29;20035;-32
2022/10/20 07:30:50;;;;;;;28.40;13.75;;;10.10;99.90;;;;;;4927958;28;20396;-34
2022/10/20 07:33:15;;;;;;;27.27;13.80;;;10.10;99.90;;;;;;4930516;29;20031;-30
2022/10/20 07:35:41;;;;;;;33.20;13.75;;;10.20;99.90;;;;;;4928705;29;20476;-31
2022/10/20 07:38:07;;;;;;;31.80;13.75;;;10.10;99.90;;;;;;4944985;28;20043;-30
2022/10/20 07:40:32;;;;;;;26.23;13.27;;;10.20;99.90;;;;;;4931852;29;20040;-35
2022/10/20 07:42:58;;;;;;;38.38;15.95;;;10.20;99.90;;;;;;4929759;29;20110;-33
2022/10/20 07:45:24;;;;;;;29.85;13.98;;;10.20;99.90;;;;;;4928478;29;20034;-31
2022/10/20 07:47:49;;;;;;;35.70;15.95;;;10.20;99.90;;;;;;4929024;29;20556;-30
2022/10/20 07:50:15;;;;;;;30.58;14.48;;;10.20;99.90;;;;;;4927894;29;20044;-33
2022/10/20 07:52:40;;;;;;;29.25;14.50;;;10.20;99.90;;;;;;4929273;29;20034;-31
2022/10/20 07:55:06;;;;;;;35.65;14.52;;;10.20;99.90;;;;;;4928560;29;20109;-32
2022/10/20 07:57:32;;;;;;;34.65;14.27;;;10.20;99.90;;;;;;4928190;29;20342;-31
2022/10/20 07:59:58;;;;;;;35.45;14.63;;;10.20;99.90;;;;;;4929987;29;20127;-31
2022/10/20 08:02:23;;;;;;;29.58;14.05;;;10.20;99.90;;;;;;4928970;28;20039;-31
2022/10/20 08:04:49;;;;;;;34.10;14.00;;;10.20;99.90;;;;;;4926933;29;20039;-34
2022/10/20 08:07:15;;;;;;;37.67;15.50;;;10.20;99.90;;;;;;4929315;29;20056;-30
2022/10/20 08:09:41;;;;;;;36.13;14.10;;;10.30;99.90;;;;;;4929991;29;20053;-31
2022/10/20 08:12:06;;;;;;;34.03;14.38;;;10.40;99.90;;;;;;4928345;29;20027;-32
2022/10/20 08:14:33;;;;;;;35.17;14.55;;;10.30;99.90;;;;;;4928292;29;20091;-32
2022/10/20 08:17:00;;;;;;;34.90;15.48;;;10.40;99.90;;;;;;4930652;29;20036;-33
2022/10/20 08:19:27;;;;;;;35.28;14.80;;;10.40;99.90;;;;;;4943308;28;20075;-31
2022/10/20 08:21:52;;;;;;;30.00;14.15;;;10.40;99.90;;;;;;4928663;29;20050;-31
2022/10/20 08:24:18;;;;;;;37.05;14.27;;;10.40;99.90;;;;;;4927729;29;20040;-33
2022/10/20 08:26:43;;;;;;;35.05;15.13;;;10.50;99.90;;;;;;4928847;29;20039;-31
2022/10/20 08:29:11;;;;;;;32.13;13.93;;;10.40;99.90;;;;;;4931727;29;20518;-34
2022/10/20 08:31:37;;;;;;;34.20;15.73;;;10.50;99.90;;;;;;4927767;29;20066;-31
2022/10/20 08:34:03;;;;;;;32.10;13.73;;;10.50;99.90;;;;;;4930320;29;20048;-33
2022/10/20 08:36:29;;;;;;;36.38;14.18;;;10.50;99.90;;;;;;4927509;29;20036;-34
2022/10/20 08:38:55;;;;;;;25.52;12.93;;;10.50;99.90;;;;;;4928263;29;22058;-32
2022/10/20 08:41:26;;;;;;;27.08;12.27;;;10.60;99.90;;;;;;4929165;29;20061;-31
2022/10/20 08:43:54;;;;;;;25.67;12.55;;;10.70;99.90;;;;;;4927985;29;20032;-31
2022/10/20 08:46:24;;;;;;;29.83;12.23;;;10.70;99.90;;;;;;4927809;28;20042;-33
2022/10/20 08:48:50;;;;;;;27.02;12.23;;;10.70;99.90;;;;;;4930180;29;20403;-33
2022/10/20 08:51:21;;;;;;;26.63;13.82;;;10.70;99.90;;;;;;4927658;29;20461;-37
2022/10/20 08:53:50;;;;;;;34.83;18.85;;;10.70;99.90;;;;;;4928134;29;20106;-31
2022/10/20 08:56:19;;;;;;;25.60;12.10;;;10.60;99.90;;;;;;4925796;29;20152;-31
2022/10/20 08:58:45;;;;;;;22.33;12.65;;;10.60;99.90;;;;;;4928826;29;20031;-31
2022/10/20 09:01:21;;;;;;;20.38;10.27;;;10.60;99.90;;;;;;4925961;29;20027;-30
2022/10/20 09:04:14;;;;;;;26.85;12.40;;;10.50;99.90;;;;;;4929118;29;20050;-32
2022/10/20 09:06:42;;;;;;;23.80;12.55;;;10.60;99.90;;;;;;4927124;29;20074;-31
2022/10/20 09:09:13;;;;;;;25.60;12.35;;;10.60;99.90;;;;;;4928276;29;20039;-31
2022/10/20 09:11:43;;;;;;;20.60;10.70;;;10.60;99.90;;;;;;4927289;29;20032;-34
2022/10/20 09:14:10;;;;;;;24.13;11.13;;;10.60;99.90;;;;;;4928369;29;20786;-33
2022/10/20 09:16:37;;;;;;;26.92;12.10;;;10.70;99.90;;;;;;4927596;29;20063;-31
2022/10/20 09:19:05;;;;;;;26.45;11.60;;;10.70;99.90;;;;;;4928383;29;20110;-34
2022/10/20 09:21:34;;;;;;;22.42;11.20;;;10.70;99.90;;;;;;4929033;29;20094;-31
2022/10/20 09:24:02;;;;;;;25.15;12.00;;;10.70;99.90;;;;;;4928698;29;20553;-31
2022/10/20 09:26:44;;;;;;;25.50;12.85;;;10.70;99.90;;;;;;4925310;29;20028;-31
2022/10/20 09:29:17;;;;;;;25.02;11.48;;;10.70;99.90;;;;;;4941237;28;20032;-31
2022/10/20 09:31:48;;;;;;;21.30;10.65;;;10.80;99.90;;;;;;4926908;29;20032;-31
2022/10/20 09:34:27;;;;;;;24.85;11.65;;;10.70;99.90;;;;;;4928809;29;20079;-32
2022/10/20 09:37:15;;;;;;;28.55;13.57;;;10.70;99.90;;;;;;4928177;29;20035;-32
2022/10/20 09:39:45;;;;;;;22.10;11.38;;;10.70;99.90;;;;;;4927477;29;20042;-31
2022/10/20 09:42:18;;;;;;;25.25;11.60;;;10.70;99.90;;;;;;4928111;29;20507;-31
2022/10/20 09:44:57;;;;;;;23.67;11.48;;;10.70;99.90;;;;;;4928107;29;20392;-34
2022/10/20 09:47:25;;;;;;;22.27;11.25;;;10.80;99.90;;;;;;4926403;29;20035;-31
2022/10/20 09:50:03;;;;;;;22.17;11.88;;;10.80;99.90;;;;;;4927305;29;20118;-32
2022/10/20 09:52:43;;;;;;;24.95;12.07;;;10.90;99.90;;;;;;4929533;29;20055;-31
2022/10/20 09:55:27;;;;;;;25.73;11.93;;;11.00;99.90;;;;;;4924257;29;20034;-30
2022/10/20 09:57:54;;;;;;;24.10;12.68;;;10.80;99.90;;;;;;4926162;29;20039;-37
2022/10/20 10:00:38;;;;;;;24.20;11.95;;;10.70;99.90;;;;;;4926239;29;20126;-39
2022/10/20 10:03:19;;;;;;;22.80;11.57;;;10.80;99.90;;;;;;4925612;29;20405;-41
2022/10/20 10:05:45;;;;;;;26.83;12.07;;;10.80;99.90;;;;;;4926130;29;20028;-40
2022/10/20 10:08:14;;;;;;;26.55;12.82;;;10.80;99.90;;;;;;4924287;29;20426;-40
2022/10/20 10:10:40;;;;;;;24.08;11.60;;;10.80;99.90;;;;;;4926489;29;20469;-39
2022/10/20 10:13:20;;;;;;;22.25;10.43;;;10.90;99.90;;;;;;4931004;29;20035;-41
2022/10/20 10:15:46;;;;;;;22.73;11.43;;;10.90;99.90;;;;;;4930103;29;20481;-40
2022/10/20 10:18:14;;;;;;;22.67;11.20;;;11.10;99.90;;;;;;4927557;29;20071;-40
2022/10/20 10:20:40;;;;;;;;;;;11.10;99.90;;;;;;4934732;29;20062;-39
2022/10/20 10:23:27;;;;;;;19.48;10.50;;;11.10;99.90;;;;;;4930382;29;19946;-40
2022/10/20 10:25:53;;;;;;;20.23;10.85;;;11.10;99.90;;;;;;4930305;29;20028;-41
2022/10/20 10:28:25;;;;;;;23.25;11.25;;;11.10;99.90;;;;;;4929617;29;20038;-40
2022/10/20 10:31:05;;;;;;;22.15;11.63;;;11.10;99.90;;;;;;4929817;28;20094;-39
2022/10/20 10:33:34;;;;;;;22.63;11.30;;;11.20;99.90;;;;;;4929047;29;20020;-41
2022/10/20 10:36:10;;;;;;;24.98;12.20;;;11.20;99.90;;;;;;4929809;29;20099;-38
2022/10/20 10:38:36;;;;;;;24.95;11.23;;;11.20;99.90;;;;;;4929963;29;20389;-39
2022/10/20 10:41:18;;;;;;;24.50;12.48;;;11.30;99.90;;;;;;4930678;29;20028;-37
2022/10/20 10:44:14;;;;;;;24.00;11.73;;;11.20;99.90;;;;;;4927971;29;20055;-40
2022/10/20 10:46:53;;;;;;;26.02;11.77;;;11.20;99.90;;;;;;4930178;29;20953;-41
2022/10/20 10:49:27;;;;;;;21.77;11.43;;;11.20;99.90;;;;;;4928153;29;20048;-38
2022/10/20 10:52:01;;;;;;;22.73;11.77;;;11.20;99.90;;;;;;4945387;28;20026;-41
2022/10/20 10:54:38;;;;;;;21.42;11.38;;;11.20;99.90;;;;;;4931891;29;20028;-38
2022/10/20 10:57:22;;;;;;;20.95;10.98;;;11.30;99.90;;;;;;4928817;29;20032;-40
2022/10/20 10:59:50;;;;;;;21.15;12.15;;;11.30;99.90;;;;;;4928059;29;20047;-39
2022/10/20 11:02:34;;;;;;;24.33;12.63;;;11.30;99.90;;;;;;4931240;28;20043;-40
2022/10/20 11:05:22;;;;;;;21.67;11.70;;;11.30;99.90;;;;;;4929345;29;20035;-40
2022/10/20 11:07:51;;;;;;;22.77;11.52;;;11.40;99.90;;;;;;4929640;29;20560;-38
2022/10/20 11:10:37;;;;;;;22.35;10.60;;;11.50;99.90;;;;;;4929339;29;20092;-40
2022/10/20 11:13:27;;;;;;;21.88;10.57;;;11.50;99.90;;;;;;4929192;29;20034;-37
2022/10/20 11:16:20;;;;;;;19.35;10.18;;;11.60;99.90;;;;;;4929074;29;20062;-40
2022/10/20 11:19:01;;;;;;;18.25;10.13;;;11.70;99.90;;;;;;4927549;29;20035;-41
2022/10/20 11:21:41;;;;;;;22.00;11.13;;;11.80;99.90;;;;;;4928479;29;20075;-39
2022/10/20 11:24:28;;;;;;;16.90;9.88;;;11.90;99.90;;;;;;4928054;29;20445;-40
2022/10/20 11:27:09;;;;;;;22.13;11.18;;;11.80;99.90;;;;;;4928418;29;20036;-41
2022/10/20 11:29:43;;;;;;;22.20;10.95;;;11.80;99.90;;;;;;4928304;29;20042;-39
2022/10/20 11:32:28;;;;;;;19.65;10.70;;;11.70;99.90;;;;;;4929425;29;20426;-41
2022/10/20 11:35:05;;;;;;;17.95;10.60;;;11.70;99.90;;;;;;4928379;29;20107;-40
2022/10/20 11:37:48;;;;;;;21.73;11.60;;;11.70;99.90;;;;;;4928093;29;20059;-40
2022/10/20 11:40:29;;;;;;;21.67;11.73;;;11.70;99.90;;;;;;4928043;29;20034;-40
2022/10/20 11:43:21;;;;;;;22.40;11.15;;;11.60;99.90;;;;;;4928659;29;20028;-40
2022/10/20 11:45:53;;;;;;;25.65;11.68;;;11.60;99.90;;;;;;4928235;29;20115;-40
2022/10/20 11:48:40;;;;;;;24.00;12.43;;;11.60;99.90;;;;;;4943764;28;20028;-40
2022/10/20 11:51:24;;;;;;;25.27;11.83;;;11.70;99.90;;;;;;4928710;29;20032;-38
2022/10/20 11:54:12;;;;;;;19.50;10.45;;;11.80;99.90;;;;;;4928270;29;20870;-40
2022/10/20 11:56:56;;;;;;;18.85;10.55;;;11.80;99.90;;;;;;4927785;29;20026;-40
2022/10/20 11:59:42;;;;;;;24.23;10.43;;;11.70;99.90;;;;;;4926285;29;20682;-38
2022/10/20 12:02:28;;;;;;;24.88;11.25;;;11.70;99.90;;;;;;4928480;28;20172;-40
2022/10/20 12:05:11;;;;;;;19.60;10.85;;;11.70;99.90;;;;;;4927361;29;20374;-41
2022/10/20 12:08:04;;;;;;;18.95;10.50;;;11.70;99.90;;;;;;4931174;29;20098;-40
2022/10/20 12:11:01;;;;;;;22.08;10.65;;;11.80;99.90;;;;;;4925903;29;20086;-41
2022/10/20 12:13:46;;;;;;;21.30;11.35;;;11.80;99.90;;;;;;4927121;29;20497;-41
2022/10/20 12:16:12;;;;;;;21.65;10.63;;;11.90;99.90;;;;;;4927869;29;20055;-38
2022/10/20 12:18:37;;;;;;;18.35;10.60;;;12.00;99.90;;;;;;4928311;29;20032;-39
2022/10/20 12:21:03;;;;;;;22.75;11.73;;;12.00;99.90;;;;;;4929291;29;20030;-41
2022/10/20 12:23:44;;;;;;;23.98;11.02;;;12.00;99.90;;;;;;4929056;29;20027;-37
2022/10/20 12:26:28;;;;;;;20.15;11.23;;;11.90;99.90;;;;;;4927118;29;20055;-41
2022/10/20 12:28:59;;;;;;;21.80;10.88;;;11.90;99.90;;;;;;4927727;29;20039;-41
2022/10/20 12:32:03;;;;;;;18.13;10.07;;;12.00;99.90;;;;;;4942215;28;20488;-40
2022/10/20 12:34:38;;;;;;;18.10;9.98;;;12.00;99.90;;;;;;4926436;29;20030;-38
2022/10/20 12:37:24;;;;;;;19.70;10.52;;;12.00;99.90;;;;;;4927300;29;20019;-40
2022/10/20 12:39:53;;;;;;;18.60;10.40;;;12.10;99.90;;;;;;4927021;29;20107;-41
2022/10/20 12:42:20;;;;;;;;;;;12.20;99.90;;;;;;4926627;29;20070;-41
2022/10/20 12:44:47;;;;;;;20.23;10.25;;;12.30;99.90;;;;;;4926057;29;19966;-40
2022/10/20 12:47:25;;;;;;;19.17;9.93;;;12.40;99.90;;;;;;4926256;29;20035;-41
2022/10/20 12:50:00;;;;;;;19.20;10.15;;;12.40;99.90;;;;;;4926963;29;20440;-37